Time;durP1;ratioP1;P1;durP2;ratioP2;P2;SDS_P1;SDS_P2;PMS_P1;PMS_P2;Temp;Humidity;BMP_temperature;BMP_pressure;BME280_temperature;BME280_humidity;BME280_pressure;Samples;Min_cycle;Max_cycle;Signal;HPM_P1;HPM_P2
2022/01/20 00:01:50;;;;;;;23.18;13.45;;;;;;;1.02;62.59;100579.20;1676366;85;20964;-69
2022/01/20 00:04:35;;;;;;;22.60;13.70;;;;;;;1.04;62.60;100578.48;1676654;85;21079;-70
2022/01/20 00:28:16;;;;;;;22.73;13.83;;;;;;;1.01;62.81;100539.92;1666148;85;21076;-69
2022/01/20 00:30:52;;;;;;;20.02;13.70;;;;;;;0.99;62.90;100541.45;1676181;85;21076;-69
2022/01/20 00:33:33;;;;;;;23.35;14.73;;;;;;;1.00;63.00;100535.68;1676539;85;21084;-68
2022/01/20 00:38:22;;;;;;;25.90;14.60;;;;;;;1.10;63.11;100539.57;1676597;85;21135;-68
2022/01/20 00:40:52;;;;;;;23.00;14.10;;;;;;;1.13;63.09;100533.11;1676232;85;21053;-68
2022/01/20 00:43:19;;;;;;;23.62;14.18;;;;;;;1.14;63.10;100527.64;1675822;85;21012;-69
2022/01/20 00:45:47;;;;;;;23.83;15.58;;;;;;;1.15;63.09;100520.08;1676320;85;21042;-69
2022/01/20 00:48:13;;;;;;;23.02;14.35;;;;;;;1.14;63.11;100506.59;1676528;85;21111;-69
2022/01/20 00:50:40;;;;;;;25.68;14.68;;;;;;;1.15;63.10;100500.83;1676302;85;21175;-69
2022/01/20 00:53:06;;;;;;;23.35;14.60;;;;;;;1.15;63.14;100497.72;1676449;85;21000;-69
2022/01/20 00:55:33;;;;;;;22.75;14.90;;;;;;;1.16;63.18;100494.08;1676356;85;20984;-69
2022/01/20 00:58:00;;;;;;;24.37;14.68;;;;;;;1.19;63.17;100498.14;1676687;85;21587;-69
2022/01/20 01:00:28;;;;;;;24.77;14.75;;;;;;;1.18;63.20;100499.13;1676392;85;21075;-69
2022/01/20 01:02:56;;;;;;;24.47;14.87;;;;;;;1.16;63.22;100492.76;1676579;85;21061;-69
2022/01/20 01:05:24;;;;;;;25.17;15.18;;;;;;;1.16;63.26;100488.81;1676350;85;21131;-69
2022/01/20 01:07:53;;;;;;;23.70;14.73;;;;;;;1.17;63.31;100479.09;1676459;85;21348;-69
2022/01/20 01:10:30;;;;;;;25.72;15.50;;;;;;;1.21;63.36;100475.56;1676732;85;21439;-69
2022/01/20 01:13:05;;;;;;;25.32;15.10;;;;;;;1.27;63.39;100474.78;1676542;85;21012;-69
2022/01/20 01:15:36;;;;;;;24.75;14.85;;;;;;;1.31;63.37;100478.63;1676018;85;21144;-70
2022/01/20 01:23:40;;;;;;;25.25;14.85;;;;;;;1.37;63.20;100472.58;1676799;85;21047;-68
2022/01/20 01:26:11;;;;;;;23.47;14.15;;;;;;;1.34;63.22;100463.77;1648997;85;21040;-69
2022/01/20 01:28:38;;;;;;;24.50;14.20;;;;;;;1.35;63.24;100464.06;1675397;85;22114;-69
2022/01/20 01:34:00;;;;;;;24.70;14.87;;;;;;;1.32;63.27;100452.13;1676657;85;21056;-69
2022/01/20 01:36:28;;;;;;;23.90;13.40;;;;;;;1.30;63.32;100446.25;1676507;85;21052;-68
2022/01/20 01:38:55;;;;;;;20.27;14.15;;;;;;;1.27;63.38;100444.52;1676569;85;21099;-69
2022/01/20 01:41:33;;;;;;;21.93;14.65;;;;;;;1.28;63.47;100444.81;1675631;84;21721;-69
2022/01/20 01:44:01;;;;;;;21.77;13.78;;;;;;;1.29;63.50;100435.94;1675545;84;21096;-69
2022/01/20 01:46:27;;;;;;;24.77;14.20;;;;;;;1.28;63.53;100429.03;1649773;85;21094;-68
2022/01/20 01:48:53;;;;;;;22.30;13.32;;;;;;;1.28;63.58;100424.58;1676238;85;21685;-69
2022/01/20 01:51:22;;;;;;;19.50;12.63;;;;;;;1.29;63.62;100422.27;1676316;85;21016;-68
2022/01/20 01:53:48;;;;;;;23.15;13.80;;;;;;;1.33;63.67;100425.31;1676272;85;21086;-69
2022/01/20 01:56:15;;;;;;;19.17;13.00;;;;;;;1.32;63.66;100425.02;1676151;85;21024;-69
2022/01/20 01:58:42;;;;;;;21.80;13.75;;;;;;;1.29;63.73;100418.32;1676489;85;21028;-69
2022/01/20 02:01:13;;;;;;;24.02;14.28;;;;;;;1.29;63.80;100418.83;1675259;85;21062;-69
2022/01/20 02:03:45;;;;;;;23.27;13.48;;;;;;;1.28;63.84;100412.73;1676581;85;21522;-69
2022/01/20 02:08:57;;;;;;;25.12;13.72;;;;;;;1.34;63.90;100405.36;1676307;85;21024;-69
2022/01/20 02:19:28;;;;;;;20.12;12.60;;;;;;;1.39;63.88;100392.94;1676421;85;21168;-68
2022/01/20 02:22:03;;;;;;;20.85;13.90;;;;;;;1.37;63.91;100387.86;1665348;85;21493;-68
2022/01/20 02:24:31;;;;;;;19.55;13.10;;;;;;;1.39;63.94;100387.16;1675501;85;21132;-69
2022/01/20 02:26:59;;;;;;;21.10;13.40;;;;;;;1.40;63.91;100378.25;1676459;85;21563;-70
2022/01/20 02:29:28;;;;;;;21.55;13.78;;;;;;;1.40;63.93;100369.55;1676203;85;21123;-70
2022/01/20 02:31:58;;;;;;;22.52;13.70;;;;;;;1.41;63.94;100367.21;1676299;85;21525;-69
2022/01/20 02:34:27;;;;;;;21.35;13.80;;;;;;;1.41;63.97;100361.95;1675414;85;21017;-69
2022/01/20 02:36:53;;;;;;;20.57;12.68;;;;;;;1.42;63.99;100357.01;1675701;85;21004;-68
2022/01/20 02:39:42;;;;;;;22.30;12.90;;;;;;;1.44;63.98;100352.84;1675820;84;20984;-69
2022/01/20 02:44:52;;;;;;;17.85;12.20;;;;;;;1.45;64.03;100360.55;1676445;85;21230;-69
2022/01/20 02:47:24;;;;;;;22.17;13.43;;;;;;;1.45;64.02;100350.03;1676377;85;21013;-69
2022/01/20 02:49:51;;;;;;;18.30;12.25;;;;;;;1.43;64.04;100348.09;1675886;85;21106;-69
2022/01/20 02:52:18;;;;;;;22.30;13.93;;;;;;;1.43;64.07;100341.52;1676362;85;21012;-69
2022/01/20 02:54:44;;;;;;;22.22;13.98;;;;;;;1.43;64.05;100341.52;1676603;85;21043;-69
2022/01/20 02:57:11;;;;;;;20.82;12.85;;;;;;;1.44;64.04;100339.17;1676432;85;21493;-70
2022/01/20 02:59:38;;;;;;;22.65;13.85;;;;;;;1.45;64.09;100336.88;1676437;85;21099;-70
2022/01/20 03:02:06;;;;;;;21.27;13.62;;;;;;;1.46;64.11;100326.64;1676454;85;21091;-69
2022/01/20 03:04:33;;;;;;;21.50;12.90;;;;;;;1.47;64.09;100324.81;1676568;85;21515;-70
2022/01/20 03:07:02;;;;;;;20.43;13.53;;;;;;;1.47;64.12;100327.44;1676608;85;21013;-70
2022/01/20 03:09:28;;;;;;;22.90;13.53;;;;;;;1.45;64.04;100322.88;1676605;85;21197;-70
2022/01/20 03:11:55;;;;;;;21.85;14.28;;;;;;;1.41;64.11;100323.79;1676547;85;20964;-70
2022/01/20 03:14:23;;;;;;;22.10;14.07;;;;;;;1.42;64.15;100325.94;1676664;85;21076;-70
2022/01/20 03:16:50;;;;;;;20.43;13.10;;;;;;;1.43;64.19;100323.09;1676493;85;21083;-70
2022/01/20 03:19:17;;;;;;;24.95;13.48;;;;;;;1.44;64.17;100318.13;1676700;85;20976;-69
2022/01/20 03:21:44;;;;;;;22.07;14.20;;;;;;;1.43;64.19;100316.52;1676548;85;21504;-69
2022/01/20 03:24:11;;;;;;;24.27;14.58;;;;;;;1.39;64.18;100304.78;1675825;85;21012;-69
2022/01/20 03:26:39;;;;;;;20.92;13.48;;;;;;;1.37;64.24;100294.44;1675751;85;21000;-69
2022/01/20 03:29:06;;;;;;;22.70;13.35;;;;;;;1.34;64.29;100290.09;1676553;85;21052;-69
2022/01/20 03:31:33;;;;;;;24.45;15.05;;;;;;;1.31;64.36;100294.44;1676184;85;21035;-70
2022/01/20 03:34:00;;;;;;;20.48;13.00;;;;;;;1.31;64.42;100291.30;1676325;85;21226;-68
2022/01/20 03:36:26;;;;;;;22.10;14.15;;;;;;;1.31;64.46;100282.09;1671741;85;20969;-69
2022/01/20 03:38:54;;;;;;;26.27;14.93;;;;;;;1.32;64.48;100277.66;1675936;85;21052;-69
2022/01/20 03:41:21;;;;;;;23.90;15.25;;;;;;;1.33;64.48;100281.39;1675748;85;21551;-69
2022/01/20 03:43:49;;;;;;;25.75;16.15;;;;;;;1.34;64.46;100288.27;1675928;84;20964;-68
2022/01/20 03:46:17;;;;;;;20.90;13.58;;;;;;;1.33;64.45;100279.27;1676492;85;21154;-69
2022/01/20 03:49:06;;;;;;;22.05;13.72;;;;;;;1.32;64.45;100264.50;1676357;85;20961;-69
2022/01/20 03:51:25;;;;;;;21.42;14.35;;;;;;;1.30;64.37;100267.33;1672129;85;21064;-68
2022/01/20 03:53:55;;;;;;;20.95;13.58;;;;;;;1.26;64.37;100267.95;1676482;85;21079;-69
2022/01/20 03:56:23;;;;;;;20.55;13.75;;;;;;;1.16;64.39;100265.72;1676056;85;20989;-69
2022/01/20 03:58:52;;;;;;;20.40;13.18;;;;;;;1.09;64.43;100271.48;1675551;85;21530;-70
2022/01/20 04:01:18;;;;;;;21.35;14.18;;;;;;;1.04;64.50;100267.32;1676557;85;21496;-69
2022/01/20 04:03:47;;;;;;;20.65;13.58;;;;;;;0.97;64.55;100264.69;1672053;85;21032;-70
2022/01/20 04:06:16;;;;;;;21.40;14.15;;;;;;;0.88;64.67;100264.06;1675515;85;21051;-69
2022/01/20 04:08:46;;;;;;;21.17;13.85;;;;;;;0.82;64.81;100266.68;1676459;85;21040;-70
2022/01/20 04:11:16;;;;;;;19.20;12.90;;;;;;;0.76;64.91;100259.11;1676524;85;21100;-70
2022/01/20 04:13:44;;;;;;;23.40;14.83;;;;;;;0.70;65.06;100254.64;1676070;85;21012;-69
2022/01/20 04:16:18;;;;;;;20.02;12.70;;;;;;;0.64;65.19;100252.30;1675063;85;21095;-70
2022/01/20 04:18:53;;;;;;;20.45;13.68;;;;;;;0.60;65.29;100242.39;1676351;85;21072;-70
2022/01/20 04:21:22;;;;;;;20.88;12.18;;;;;;;0.55;65.37;100235.59;1676597;85;21003;-69
2022/01/20 04:23:48;;;;;;;23.47;13.83;;;;;;;0.52;65.53;100232.05;1676527;85;21863;-69
2022/01/20 04:26:15;;;;;;;22.50;13.45;;;;;;;0.48;65.59;100229.02;1676483;85;21453;-69
2022/01/20 04:28:41;;;;;;;21.15;13.65;;;;;;;0.44;65.73;100226.48;1676413;85;21099;-69
2022/01/20 04:31:09;;;;;;;21.02;13.15;;;;;;;0.43;65.80;100223.56;1671867;85;21032;-69
2022/01/20 04:33:35;;;;;;;19.45;12.30;;;;;;;0.42;65.85;100220.09;1676598;85;20960;-69
2022/01/20 04:36:04;;;;;;;22.20;12.88;;;;;;;0.38;65.96;100214.94;1676567;85;21275;-69
2022/01/20 04:38:31;;;;;;;20.65;13.30;;;;;;;0.33;66.06;100213.91;1675747;84;20984;-68
2022/01/20 04:40:58;;;;;;;22.25;13.20;;;;;;;0.30;66.17;100213.83;1675612;84;21012;-69
2022/01/20 04:43:26;;;;;;;19.15;12.13;;;;;;;0.28;66.24;100214.52;1676659;85;21119;-69
2022/01/20 04:46:13;;;;;;;19.92;12.80;;;;;;;0.27;66.30;100209.47;1676490;85;21578;-70
2022/01/20 04:48:47;;;;;;;20.65;12.78;;;;;;;0.22;66.40;100204.28;1674376;85;21161;-70
2022/01/20 04:59:17;;;;;;;19.42;12.58;;;;;;;0.14;66.76;100191.34;1649207;86;21072;-70
2022/01/20 05:01:46;;;;;;;19.77;12.10;;;;;;;0.10;66.87;100192.75;1648930;86;22162;-69
2022/01/20 05:04:16;;;;;;;21.27;12.20;;;;;;;0.07;66.96;100183.16;1670058;85;21072;-69
2022/01/20 05:06:53;;;;;;;20.00;12.15;;;;;;;0.06;67.00;100183.63;1672080;85;21642;-70
2022/01/20 05:09:21;;;;;;;20.62;12.07;;;;;;;0.04;67.04;100173.05;1676507;85;21530;-70
2022/01/20 05:12:11;;;;;;;18.92;11.43;;;;;;;0.01;67.11;100177.38;1675576;85;21436;-69
2022/01/20 05:14:39;;;;;;;19.32;11.85;;;;;;;-0.01;67.18;100179.67;1676705;85;22020;-68
2022/01/20 05:17:06;;;;;;;17.67;11.65;;;;;;;-0.02;67.23;100179.87;1675528;85;21011;-69
2022/01/20 05:19:33;;;;;;;17.75;11.10;;;;;;;-0.07;67.34;100180.95;1676475;85;21542;-69
2022/01/20 05:22:00;;;;;;;19.92;11.45;;;;;;;-0.12;67.39;100177.62;1675741;85;21483;-69
2022/01/20 05:24:28;;;;;;;17.95;10.38;;;;;;;-0.15;67.43;100175.38;1676143;85;21114;-69
2022/01/20 05:26:56;;;;;;;19.00;11.22;;;;;;;-0.17;67.49;100162.14;1676270;85;21152;-69
2022/01/20 05:29:23;;;;;;;20.12;11.73;;;;;;;-0.19;67.57;100168.11;1676044;85;21062;-69
2022/01/20 05:31:51;;;;;;;17.60;11.12;;;;;;;-0.21;67.61;100170.11;1676466;85;21024;-69
2022/01/20 05:34:18;;;;;;;22.17;12.65;;;;;;;-0.25;67.63;100154.75;1676586;85;21027;-69
2022/01/20 05:36:48;;;;;;;22.62;12.10;;;;;;;-0.29;67.65;100161.41;1676551;85;21092;-69
2022/01/20 05:39:16;;;;;;;18.80;10.03;;;;;;;-0.30;67.68;100162.39;1676370;85;21528;-68
2022/01/20 05:41:43;;;;;;;18.77;11.50;;;;;;;-0.34;67.69;100157.23;1676194;85;21068;-69
2022/01/20 05:44:30;;;;;;;19.48;12.73;;;;;;;-0.35;67.66;100164.80;1675226;85;20965;-70
2022/01/20 05:46:57;;;;;;;21.62;11.88;;;;;;;-0.38;67.66;100165.19;1676279;85;21016;-68
2022/01/20 05:49:32;;;;;;;17.02;11.78;;;;;;;-0.39;67.68;100170.14;1671771;85;21055;-69
2022/01/20 05:52:00;;;;;;;20.25;11.57;;;;;;;-0.40;67.67;100163.76;1676007;85;21067;-68
2022/01/20 05:54:26;;;;;;;23.22;13.30;;;;;;;-0.43;67.71;100161.52;1676390;85;21031;-68
2022/01/20 05:56:53;;;;;;;22.55;12.53;;;;;;;-0.44;67.70;100168.59;1676201;85;21119;-70
2022/01/20 05:59:19;;;;;;;22.02;12.60;;;;;;;-0.44;67.70;100174.34;1676601;85;20976;-68
2022/01/20 06:01:52;;;;;;;16.62;10.90;;;;;;;-0.44;67.70;100175.66;1676348;85;21016;-68
2022/01/20 06:04:15;;;;;;;22.65;12.63;;;;;;;-0.44;67.69;100162.03;1675875;85;21045;-68
2022/01/20 06:06:44;;;;;;;20.52;12.50;;;;;;;-0.44;67.67;100158.09;1644532;85;21539;-68
2022/01/20 06:09:10;;;;;;;19.05;12.45;;;;;;;-0.42;67.63;100156.61;1676760;85;21036;-69
2022/01/20 06:11:37;;;;;;;20.77;12.78;;;;;;;-0.40;67.57;100150.64;1676285;85;20973;-68
2022/01/20 06:14:07;;;;;;;21.57;12.82;;;;;;;-0.39;67.52;100153.09;1676633;85;21080;-68
2022/01/20 06:16:35;;;;;;;21.40;13.18;;;;;;;-0.36;67.48;100143.98;1676365;85;21188;-70
2022/01/20 06:19:03;;;;;;;20.85;13.10;;;;;;;-0.35;67.43;100137.25;1676687;85;21040;-69
2022/01/20 06:21:30;;;;;;;21.17;13.00;;;;;;;-0.33;67.33;100147.06;1678587;84;21098;-69
2022/01/20 06:23:57;;;;;;;19.92;11.95;;;;;;;-0.29;67.23;100146.16;1676928;85;21029;-69
2022/01/20 06:26:23;;;;;;;23.22;13.40;;;;;;;-0.26;67.18;100144.46;1676283;85;21200;-69
2022/01/20 06:28:50;;;;;;;21.82;12.63;;;;;;;-0.24;67.11;100143.23;1676528;85;21078;-69
2022/01/20 06:31:17;;;;;;;17.98;11.75;;;;;;;-0.19;67.01;100153.67;1676568;85;21594;-69
2022/01/20 06:33:44;;;;;;;20.52;11.50;;;;;;;-0.14;66.91;100151.25;1671960;85;21027;-70
2022/01/20 06:36:11;;;;;;;20.08;12.10;;;;;;;-0.09;66.78;100143.61;1676562;85;21127;-70
2022/01/20 06:38:38;;;;;;;21.10;12.85;;;;;;;-0.06;66.66;100136.66;1676448;85;21064;-68
2022/01/20 06:41:05;;;;;;;19.67;11.65;;;;;;;0.01;66.57;100134.85;1676667;85;21133;-68
2022/01/20 06:43:34;;;;;;;18.02;11.75;;;;;;;0.04;66.40;100126.58;1676366;85;21455;-69
2022/01/20 06:46:00;;;;;;;22.82;12.78;;;;;;;0.11;66.27;100120.84;1676260;85;21448;-69
2022/01/20 06:48:41;;;;;;;18.98;11.38;;;;;;;0.15;66.08;100108.11;1674609;85;21602;-70
2022/01/20 06:51:19;;;;;;;20.88;12.82;;;;;;;0.16;65.68;100082.95;1668949;85;21100;-69
2022/01/20 06:53:46;;;;;;;22.65;12.45;;;;;;;0.20;65.46;100084.70;1676426;85;21185;-69
2022/01/20 06:56:13;;;;;;;19.00;11.40;;;;;;;0.22;65.34;100086.09;1676358;85;21020;-70
2022/01/20 06:58:40;;;;;;;18.27;11.57;;;;;;;0.21;65.12;100083.17;1676236;85;20976;-70
2022/01/20 07:01:06;;;;;;;21.55;12.78;;;;;;;0.23;64.96;100080.33;1676401;85;21425;-68
2022/01/20 07:03:33;;;;;;;22.25;12.75;;;;;;;0.23;64.82;100075.91;1675705;85;21071;-70
2022/01/20 07:06:00;;;;;;;20.57;12.28;;;;;;;0.28;64.71;100077.12;1676407;85;21514;-70
2022/01/20 07:08:28;;;;;;;22.62;13.00;;;;;;;0.32;64.61;100070.45;1676361;85;21005;-69
2022/01/20 07:10:55;;;;;;;19.07;12.03;;;;;;;0.37;64.47;100082.48;1676452;85;21072;-69
2022/01/20 07:13:23;;;;;;;21.68;12.75;;;;;;;0.40;64.29;100082.09;1676313;85;21111;-69
2022/01/20 07:15:49;;;;;;;22.20;12.68;;;;;;;0.43;64.01;100090.38;1675741;85;21012;-69
2022/01/20 07:18:16;;;;;;;24.30;13.50;;;;;;;0.44;63.82;100089.35;1675830;84;20993;-69
2022/01/20 07:20:43;;;;;;;22.65;13.05;;;;;;;0.43;63.44;100088.25;1676372;85;20969;-70
2022/01/20 07:23:11;;;;;;;22.10;13.80;;;;;;;0.43;63.34;100081.69;1675789;85;21433;-68
2022/01/20 07:25:39;;;;;;;20.77;12.60;;;;;;;0.44;63.14;100076.72;1675624;85;21147;-68
2022/01/20 07:28:07;;;;;;;20.75;12.85;;;;;;;0.40;63.21;100076.32;1676542;85;21555;-69
2022/01/20 07:30:35;;;;;;;24.07;12.75;;;;;;;0.46;63.16;100078.14;1676245;85;22161;-69
2022/01/20 07:33:05;;;;;;;24.57;13.70;;;;;;;0.51;63.13;100084.09;1676373;85;21012;-69
2022/01/20 07:35:32;;;;;;;21.90;13.22;;;;;;;0.62;63.05;100087.92;1676304;85;21079;-69
2022/01/20 07:37:59;;;;;;;18.92;11.70;;;;;;;0.74;62.94;100089.44;1676219;85;21039;-69
2022/01/20 07:40:26;;;;;;;23.67;14.28;;;;;;;0.81;62.51;100088.41;1676451;85;21064;-69
2022/01/20 07:42:54;;;;;;;21.87;12.95;;;;;;;0.86;62.40;100082.56;1676480;85;21036;-70
2022/01/20 07:45:23;;;;;;;24.52;14.18;;;;;;;0.93;62.18;100074.95;1669507;85;21043;-69
2022/01/20 07:48:07;;;;;;;24.02;14.10;;;;;;;1.02;62.00;100077.34;1671354;85;21021;-68
2022/01/20 07:50:34;;;;;;;22.60;13.68;;;;;;;1.12;61.66;100077.75;1676306;85;21637;-68
2022/01/20 07:53:02;;;;;;;20.00;12.63;;;;;;;1.20;61.49;100064.36;1676432;85;21569;-69
2022/01/20 07:55:31;;;;;;;23.73;13.68;;;;;;;1.29;61.17;100057.86;1676316;85;21170;-69
2022/01/20 07:57:58;;;;;;;21.73;13.55;;;;;;;1.32;60.84;100049.55;1676452;85;21047;-69
2022/01/20 08:00:27;;;;;;;19.70;12.20;;;;;;;1.33;60.61;100047.73;1676451;85;21514;-70
2022/01/20 08:02:54;;;;;;;22.58;13.72;;;;;;;1.35;60.38;100048.30;1676765;85;21055;-70
2022/01/20 08:05:22;;;;;;;22.48;14.00;;;;;;;1.35;60.14;100036.47;1674453;85;21074;-70
2022/01/20 08:07:49;;;;;;;23.07;13.95;;;;;;;1.40;60.14;100039.29;1676494;85;21154;-69
2022/01/20 08:10:17;;;;;;;22.85;13.58;;;;;;;1.47;59.84;100031.36;1676368;85;21075;-69
2022/01/20 08:12:45;;;;;;;21.97;13.72;;;;;;;1.54;59.63;100036.08;1675497;85;21067;-70
2022/01/20 08:15:16;;;;;;;19.07;11.85;;;;;;;1.60;59.62;100037.36;1675758;84;21546;-69
2022/01/20 08:17:44;;;;;;;22.82;13.95;;;;;;;1.70;59.29;100033.47;1667015;85;21099;-69
2022/01/20 08:20:12;;;;;;;21.10;13.45;;;;;;;1.78;59.04;100039.82;1675901;85;21549;-70
2022/01/20 08:22:39;;;;;;;21.45;13.65;;;;;;;1.90;58.99;100039.94;1649070;86;21020;-69
2022/01/20 08:25:11;;;;;;;20.37;12.90;;;;;;;2.00;58.80;100043.70;1648930;86;21027;-69
2022/01/20 08:27:37;;;;;;;21.42;13.80;;;;;;;2.13;58.49;100040.17;1649006;86;21011;-69
2022/01/20 08:30:08;;;;;;;21.65;14.23;;;;;;;2.23;58.19;100043.13;1649011;86;20965;-70
2022/01/20 08:32:35;;;;;;;21.85;13.10;;;;;;;2.31;57.85;100035.49;1649053;87;22137;-69
2022/01/20 08:35:06;;;;;;;20.90;13.20;;;;;;;2.38;57.62;100038.08;1647156;86;20960;-69
2022/01/20 08:37:43;;;;;;;20.40;12.75;;;;;;;2.43;57.04;100031.62;1659251;85;21096;-70
2022/01/20 08:40:13;;;;;;;22.85;13.72;;;;;;;2.45;56.66;100034.34;1676035;85;21459;-70
2022/01/20 08:42:42;;;;;;;20.85;12.45;;;;;;;2.47;56.59;100034.95;1675044;84;21075;-68
2022/01/20 08:45:10;;;;;;;22.65;13.88;;;;;;;2.55;56.14;100036.49;1676734;85;21124;-70
2022/01/20 08:47:38;;;;;;;19.90;13.28;;;;;;;2.58;56.04;100038.19;1676351;85;21151;-69
2022/01/20 08:50:06;;;;;;;21.93;14.10;;;;;;;2.62;55.86;100034.59;1676628;85;21063;-70
2022/01/20 08:52:33;;;;;;;19.37;12.90;;;;;;;2.67;55.67;100021.58;1675839;85;21036;-69
2022/01/20 08:55:01;;;;;;;21.82;13.68;;;;;;;2.72;55.37;100015.12;1676802;85;20972;-69
2022/01/20 08:57:46;;;;;;;22.07;13.38;;;;;;;2.76;55.17;100003.14;1672561;85;21540;-69
2022/01/20 09:00:15;;;;;;;18.60;12.03;;;;;;;2.80;54.63;100004.30;1676451;85;21032;-69
2022/01/20 09:02:43;;;;;;;19.40;11.83;;;;;;;2.85;54.72;99996.23;1674667;85;21111;-69
2022/01/20 09:05:09;;;;;;;18.80;12.07;;;;;;;2.89;53.81;100000.84;1676683;85;21032;-69
2022/01/20 09:07:38;;;;;;;19.48;12.68;;;;;;;2.89;53.83;100000.05;1674608;85;20964;-69
2022/01/20 09:10:08;;;;;;;19.42;12.55;;;;;;;2.93;53.85;99995.45;1676689;85;21505;-69
2022/01/20 09:15:28;;;;;;;18.00;11.70;;;;;;;2.98;53.13;99971.83;1676491;85;21060;-69
2022/01/20 09:17:57;;;;;;;;;;;;;;;2.99;52.73;99971.31;1679202;85;21463;-70
2022/01/20 09:20:24;;;;;;;19.20;11.93;;;;;;;2.98;52.71;99954.68;1676619;85;20140;-68
2022/01/20 09:22:51;;;;;;;17.15;11.55;;;;;;;2.99;52.37;99952.84;1676569;85;21574;-69
2022/01/20 09:25:19;;;;;;;20.55;12.43;;;;;;;2.96;52.40;99954.12;1676357;85;22242;-70
2022/01/20 09:27:46;;;;;;;20.65;12.13;;;;;;;2.99;52.46;99948.89;1676672;85;21028;-69
2022/01/20 09:30:18;;;;;;;19.37;12.10;;;;;;;3.04;52.32;99947.72;1676592;85;21084;-69
2022/01/20 09:32:42;;;;;;;17.95;12.03;;;;;;;3.14;52.35;99944.04;1676109;85;21056;-69
2022/01/20 09:35:08;;;;;;;19.15;12.13;;;;;;;3.16;51.62;99925.33;1676710;85;22140;-70
2022/01/20 09:37:38;;;;;;;18.65;11.75;;;;;;;3.15;51.74;99924.53;1676351;85;20949;-70
2022/01/20 09:40:07;;;;;;;20.00;12.35;;;;;;;3.19;51.61;99912.52;1676370;85;21547;-69
2022/01/20 09:42:38;;;;;;;18.67;11.40;;;;;;;3.23;51.39;99912.88;1676127;85;21088;-69
2022/01/20 09:45:06;;;;;;;18.32;11.90;;;;;;;3.26;51.08;99915.06;1676414;85;21524;-69
2022/01/20 09:47:35;;;;;;;18.00;11.35;;;;;;;3.27;50.80;99912.70;1676547;85;21151;-69
2022/01/20 09:50:14;;;;;;;17.82;11.10;;;;;;;3.27;50.74;99917.98;1650059;84;21048;-69
2022/01/20 09:52:43;;;;;;;18.50;11.18;;;;;;;3.26;50.65;99907.15;1667671;85;21072;-68
2022/01/20 09:55:23;;;;;;;16.12;10.25;;;;;;;3.26;50.75;99897.39;1673419;85;21048;-69
2022/01/20 09:57:49;;;;;;;16.97;11.65;;;;;;;3.31;50.60;99894.06;1676597;85;21195;-70
2022/01/20 10:00:16;;;;;;;19.40;11.93;;;;;;;3.32;50.48;99898.31;1676508;85;21440;-70
2022/01/20 10:03:06;;;;;;;17.95;11.40;;;;;;;3.32;50.68;99886.43;1676452;85;21031;-69
2022/01/20 10:05:45;;;;;;;17.65;10.82;;;;;;;3.38;50.45;99880.25;1676315;85;21079;-69
2022/01/20 10:08:22;;;;;;;17.52;11.08;;;;;;;3.38;50.30;99876.81;1676675;85;21052;-69
2022/01/20 10:10:59;;;;;;;18.10;11.70;;;;;;;3.37;50.29;99876.53;1668706;85;21068;-69
2022/01/20 10:13:32;;;;;;;17.85;11.18;;;;;;;3.38;50.31;99867.05;1655168;85;21430;-69
2022/01/20 10:16:10;;;;;;;18.32;11.43;;;;;;;3.39;50.08;99866.53;1675416;85;21566;-70
2022/01/20 10:18:54;;;;;;;18.37;11.93;;;;;;;3.39;50.33;99855.48;1676518;85;21467;-70
2022/01/20 10:21:32;;;;;;;18.75;11.70;;;;;;;3.47;50.41;99862.27;1675761;85;21103;-70
2022/01/20 10:24:07;;;;;;;17.67;10.98;;;;;;;3.56;50.04;99854.83;1672379;85;21068;-69
2022/01/20 10:26:42;;;;;;;16.80;11.38;;;;;;;3.58;49.64;99843.50;1674190;85;21723;-69
2022/01/20 10:29:12;;;;;;;18.55;10.18;;;;;;;3.56;49.53;99834.50;1676440;85;21048;-70
2022/01/20 10:31:49;;;;;;;20.75;11.70;;;;;;;3.55;49.48;99839.99;1676772;85;21135;-70
2022/01/20 10:34:35;;;;;;;19.77;11.75;;;;;;;3.48;49.61;99829.53;1676356;85;20972;-70
2022/01/20 10:37:08;;;;;;;24.02;12.23;;;;;;;3.49;49.91;99829.33;1674751;85;20932;-71
2022/01/20 10:39:44;;;;;;;18.10;12.33;;;;;;;3.57;50.04;99828.17;1676099;85;21105;-70
2022/01/20 10:42:24;;;;;;;19.10;12.10;;;;;;;3.56;49.64;99823.94;1676428;85;21013;-70
2022/01/20 10:44:56;;;;;;;15.72;10.20;;;;;;;3.52;49.94;99827.55;1676504;85;21083;-71
2022/01/20 10:47:27;;;;;;;16.02;10.93;;;;;;;3.53;50.22;99812.51;1676124;85;20988;-70
2022/01/20 10:49:56;;;;;;;17.05;11.38;;;;;;;3.53;50.26;99801.42;1648923;85;21594;-71
2022/01/20 10:52:27;;;;;;;19.07;11.65;;;;;;;3.59;50.37;99797.08;1676292;85;21319;-69
2022/01/20 10:54:55;;;;;;;18.30;11.40;;;;;;;3.70;50.27;99786.22;1676254;85;21124;-71
2022/01/20 10:57:31;;;;;;;18.77;12.15;;;;;;;3.76;49.99;99775.53;1675338;85;20957;-70
2022/01/20 11:00:06;;;;;;;19.62;11.38;;;;;;;3.82;49.92;99776.45;1676381;85;21075;-71
2022/01/20 11:02:35;;;;;;;20.27;12.13;;;;;;;3.87;49.71;99758.05;1674253;85;21060;-70
2022/01/20 11:05:02;;;;;;;17.30;11.97;;;;;;;3.91;49.71;99755.23;1676498;85;21042;-71
2022/01/20 11:07:30;;;;;;;17.37;10.90;;;;;;;3.97;49.75;99756.94;1676228;85;21063;-70
2022/01/20 11:10:03;;;;;;;18.12;11.53;;;;;;;4.05;49.49;99753.65;1676311;85;21048;-70
2022/01/20 11:12:34;;;;;;;17.90;11.15;;;;;;;4.09;49.64;99742.92;1664518;85;20976;-70
2022/01/20 11:15:04;;;;;;;19.27;12.20;;;;;;;4.17;49.67;99737.25;1675999;85;20977;-70
2022/01/20 11:17:31;;;;;;;18.52;11.38;;;;;;;4.20;49.40;99742.06;1676405;84;21897;-70
2022/01/20 11:20:06;;;;;;;20.17;12.00;;;;;;;4.21;49.54;99731.28;1676392;85;21025;-70
2022/01/20 11:22:32;;;;;;;18.23;11.12;;;;;;;4.28;49.61;99740.88;1675745;84;21063;-70
2022/01/20 11:25:08;;;;;;;19.40;12.77;;;;;;;4.33;49.33;99729.90;1675117;85;21036;-71
2022/01/20 11:27:43;;;;;;;18.67;11.38;;;;;;;4.34;49.34;99728.84;1674873;85;21004;-71
2022/01/20 11:30:32;;;;;;;17.55;11.60;;;;;;;4.36;49.26;99728.10;1676514;85;21458;-71
2022/01/20 11:33:06;;;;;;;17.30;11.55;;;;;;;4.37;49.27;99723.09;1672974;85;21163;-71
2022/01/20 11:35:43;;;;;;;20.10;12.40;;;;;;;4.38;49.29;99715.98;1675624;85;21059;-71
2022/01/20 11:38:14;;;;;;;19.65;12.60;;;;;;;4.40;49.30;99717.86;1676525;85;21016;-71
2022/01/20 11:40:58;;;;;;;20.08;12.15;;;;;;;4.41;49.19;99720.80;1676428;85;21016;-71
2022/01/20 11:43:51;;;;;;;20.77;12.07;;;;;;;4.40;48.97;99725.79;1676839;85;21551;-72
2022/01/20 11:46:22;;;;;;;18.73;12.03;;;;;;;4.39;49.34;99721.55;1676137;85;21012;-71
2022/01/20 11:49:05;;;;;;;18.55;11.55;;;;;;;4.44;48.95;99730.88;1676619;85;21503;-71
2022/01/20 11:51:50;;;;;;;17.75;11.22;;;;;;;4.45;49.02;99739.91;1676628;85;21051;-71
2022/01/20 11:54:30;;;;;;;16.60;11.22;;;;;;;4.52;49.13;99737.65;1675858;85;21060;-71
2022/01/20 11:57:17;;;;;;;19.65;11.65;;;;;;;4.60;49.24;99733.28;1676875;85;21197;-70
2022/01/20 11:59:52;;;;;;;18.95;12.33;;;;;;;4.65;49.05;99730.74;1668706;85;21059;-71
2022/01/20 12:02:38;;;;;;;17.17;11.50;;;;;;;4.68;49.12;99735.03;1676747;85;21471;-70
2022/01/20 12:05:30;;;;;;;20.77;12.33;;;;;;;4.69;49.20;99722.08;1675426;85;21554;-71
2022/01/20 12:08:18;;;;;;;20.55;12.03;;;;;;;4.66;49.23;99727.84;1672107;85;21646;-71
2022/01/20 12:11:01;;;;;;;17.20;11.53;;;;;;;4.62;49.26;99712.70;1676326;85;21155;-70
2022/01/20 12:13:30;;;;;;;17.52;11.57;;;;;;;4.54;49.45;99703.81;1685961;85;20999;-71
2022/01/20 12:16:01;;;;;;;18.85;12.45;;;;;;;4.53;49.74;99703.55;1669117;86;21064;-70
2022/01/20 12:18:29;;;;;;;;;;;;;;;4.49;49.82;99697.13;1671983;86;21516;-71
2022/01/20 12:21:02;;;;;;;16.10;10.85;;;;;;;4.49;50.03;99694.48;1669126;85;20481;-71
2022/01/20 12:23:28;;;;;;;18.00;11.75;;;;;;;4.52;50.15;99694.02;1669200;86;22021;-70
2022/01/20 12:26:04;;;;;;;18.37;11.78;;;;;;;4.52;50.03;99671.54;1668898;85;21125;-71
2022/01/20 12:28:31;;;;;;;16.87;11.63;;;;;;;4.49;50.18;99673.34;1669169;86;20989;-71
2022/01/20 12:31:01;;;;;;;17.15;11.35;;;;;;;4.52;50.35;99672.86;1669038;86;21064;-71